Time;durP1;ratioP1;P1;durP2;ratioP2;P2;SDS_P1;SDS_P2;PMS_P1;PMS_P2;Temp;Humidity;BMP_temperature;BMP_pressure;BME280_temperature;BME280_humidity;BME280_pressure;Samples;Min_cycle;Max_cycle;Signal;HPM_P1;HPM_P2
2022/09/11 00:01:26;;;;;;;55.15;29.40;;;14.50;99.90;;;;;;5075199;28;20120;-63
2022/09/11 00:03:56;;;;;;;58.53;30.33;;;14.20;99.90;;;;;;5075398;28;20057;-63
2022/09/11 00:06:23;;;;;;;58.72;31.17;;;13.30;99.90;;;;;;5075277;28;20048;-63
2022/09/11 00:08:59;;;;;;;62.75;30.67;;;14.30;99.90;;;;;;5090578;28;20042;-63
2022/09/11 00:11:27;;;;;;;61.05;30.63;;;14.20;99.90;;;;;;5095067;28;20503;-63
2022/09/11 00:13:53;;;;;;;62.25;31.08;;;;;;;;;;5071671;28;20510;-63
2022/09/11 00:16:33;;;;;;;61.22;30.90;;;14.50;99.90;;;;;;5095343;28;20040;-63
2022/09/11 00:19:02;;;;;;;65.32;30.67;;;14.30;99.90;;;;;;5059145;28;20146;-63
2022/09/11 00:21:30;;;;;;;69.47;32.25;;;14.50;99.90;;;;;;5073899;28;20396;-62
2022/09/11 00:23:56;;;;;;;62.28;31.42;;;15.20;99.90;;;;;;5092877;28;20036;-63
2022/09/11 00:26:26;;;;;;;73.68;34.80;;;13.90;99.90;;;;;;5095450;28;20043;-62
2022/09/11 00:28:52;;;;;;;69.22;32.92;;;;;;;;;;5066857;28;20037;-62
2022/09/11 00:31:29;;;;;;;73.82;32.35;;;14.20;99.90;;;;;;5074644;28;20042;-63
2022/09/11 00:33:57;;;;;;;63.13;29.35;;;13.60;99.90;;;;;;5074854;28;20070;-63
2022/09/11 00:36:30;;;;;;;69.70;31.63;;;14.00;99.90;;;;;;5074802;28;20119;-63
2022/09/11 00:38:57;;;;;;;61.65;30.75;;;14.10;99.90;;;;;;5058334;28;20040;-63
2022/09/11 00:41:34;;;;;;;66.32;32.22;;;13.30;99.90;;;;;;5074934;28;20044;-63
2022/09/11 00:44:01;;;;;;;61.15;29.25;;;14.10;99.90;;;;;;5093292;28;20492;-62
2022/09/11 00:46:58;;;;;;;60.65;29.42;;;14.10;99.90;;;;;;5094614;28;20040;-62
2022/09/11 00:49:31;;;;;;;53.53;26.83;;;14.00;99.90;;;;;;5094602;28;20040;-62
2022/09/11 00:52:03;;;;;;;57.00;27.20;;;14.10;99.90;;;;;;5082743;28;20049;-63
2022/09/11 00:54:48;;;;;;;53.33;28.63;;;13.80;99.90;;;;;;5075570;28;20036;-62
2022/09/11 00:57:17;;;;;;;;;;;13.90;99.90;;;;;;5082854;28;20033;-63
2022/09/11 00:59:46;;;;;;;50.55;27.38;;;13.80;99.90;;;;;;5074070;28;20360;-62
2022/09/11 01:02:18;;;;;;;51.35;26.92;;;13.80;99.90;;;;;;5074048;28;20044;-62
2022/09/11 01:04:44;;;;;;;48.65;27.10;;;13.90;99.90;;;;;;5073909;28;20135;-62
2022/09/11 01:07:14;;;;;;;38.95;22.27;;;13.70;99.90;;;;;;5074507;28;20122;-62
2022/09/11 01:09:41;;;;;;;43.88;24.20;;;13.70;99.90;;;;;;5074407;28;20048;-62
2022/09/11 01:12:08;;;;;;;42.08;24.10;;;;;;;;;;5073798;28;20040;-62
2022/09/11 01:14:40;;;;;;;39.47;23.40;;;13.90;99.90;;;;;;5072563;28;20032;-62
2022/09/11 01:17:14;;;;;;;37.17;22.45;;;13.50;99.90;;;;;;5075255;28;20032;-62
2022/09/11 01:20:04;;;;;;;39.00;21.98;;;13.60;99.90;;;;;;5073752;28;20047;-62
2022/09/11 01:22:51;;;;;;;45.50;23.65;;;13.20;99.90;;;;;;5089179;28;20039;-62
2022/09/11 01:25:47;;;;;;;87.25;25.08;;;13.80;99.90;;;;;;5093926;28;20395;-64
2022/09/11 01:28:19;;;;;;;135.73;26.85;;;13.40;99.90;;;;;;5067151;28;20032;-63
2022/09/11 01:30:50;;;;;;;150.35;27.15;;;13.70;99.90;;;;;;5086727;28;20497;-63
2022/09/11 01:33:38;;;;;;;123.50;26.00;;;13.50;99.90;;;;;;5072016;28;20514;-63
2022/09/11 01:36:21;;;;;;;124.20;25.75;;;13.60;99.90;;;;;;5072076;28;20165;-63
2022/09/11 01:38:55;;;;;;;279.95;31.88;;;13.90;99.90;;;;;;5053599;28;20083;-63
2022/09/11 01:41:32;;;;;;;85.57;23.20;;;13.50;99.90;;;;;;5068149;28;20032;-63
2022/09/11 01:44:16;;;;;;;116.65;24.23;;;13.70;99.90;;;;;;5076701;28;20440;-63
2022/09/11 01:46:46;;;;;;;90.88;24.70;;;13.50;99.90;;;;;;5093492;28;20032;-63
2022/09/11 01:49:56;;;;;;;123.10;23.83;;;13.60;99.90;;;;;;5093330;28;20093;-63
2022/09/11 01:52:28;;;;;;;88.00;22.65;;;13.40;99.90;;;;;;5049197;28;20056;-63
2022/09/11 01:55:01;;;;;;;94.15;20.33;;;13.50;99.90;;;;;;5050980;28;20064;-63
2022/09/11 01:57:35;;;;;;;170.82;24.42;;;13.80;99.90;;;;;;5008327;28;20046;-63
2022/09/11 02:00:07;;;;;;;130.48;21.90;;;13.30;99.90;;;;;;5031646;28;20111;-63
2022/09/11 02:02:58;;;;;;;147.82;21.65;;;13.10;99.90;;;;;;5030151;28;20117;-63
2022/09/11 02:05:32;;;;;;;105.88;21.40;;;13.40;99.90;;;;;;5030940;28;20111;-63
2022/09/11 02:08:09;;;;;;;;;;;13.40;99.90;;;;;;5031044;28;20116;-63
2022/09/11 02:10:51;;;;;;;54.80;19.85;;;13.40;99.90;;;;;;5030932;28;19975;-63
2022/09/11 02:13:46;;;;;;;80.65;19.92;;;13.50;99.90;;;;;;5026515;28;20401;-63
2022/09/11 02:16:25;;;;;;;106.43;21.75;;;13.30;99.90;;;;;;5035652;28;20052;-63
2022/09/11 02:18:51;;;;;;;74.15;20.83;;;;;;;;;;5030686;28;20034;-64
2022/09/11 02:21:17;;;;;;;107.45;19.90;;;13.30;99.90;;;;;;5040083;28;20451;-58
2022/09/11 02:23:44;;;;;;;220.38;26.30;;;13.30;99.90;;;;;;5082510;28;20178;-56
2022/09/11 02:26:13;;;;;;;237.98;21.58;;;13.40;99.90;;;;;;5092614;28;20115;-55
2022/09/11 02:28:39;;;;;;;321.52;25.50;;;13.40;99.90;;;;;;5091148;28;20109;-57
2022/09/11 02:31:06;;;;;;;122.20;24.38;;;13.20;99.90;;;;;;5074278;28;20439;-57
2022/09/11 02:33:38;;;;;;;279.33;26.98;;;13.30;99.90;;;;;;5083764;28;20477;-57
2022/09/11 02:36:39;;;;;;;251.70;25.80;;;13.10;99.90;;;;;;5072963;28;20048;-57
2022/09/11 02:39:14;;;;;;;169.85;24.20;;;13.20;99.90;;;;;;5053010;28;20140;-57
2022/09/11 02:41:58;;;;;;;178.43;27.02;;;12.90;99.90;;;;;;5085445;28;20039;-57
2022/09/11 02:44:57;;;;;;;49.10;19.88;;;13.30;99.90;;;;;;5093269;28;20039;-57
2022/09/11 02:47:43;;;;;;;34.65;19.20;;;13.30;99.90;;;;;;5092384;28;20032;-57
2022/09/11 02:50:24;;;;;;;71.20;19.98;;;13.20;99.90;;;;;;5092874;28;20089;-57
2022/09/11 02:53:13;;;;;;;65.57;20.20;;;13.40;99.90;;;;;;5091393;28;20079;-57
2022/09/11 02:56:09;;;;;;;34.58;18.58;;;13.20;99.90;;;;;;5084042;28;20040;-58
2022/09/11 02:58:54;;;;;;;30.63;17.13;;;13.20;99.90;;;;;;5072521;28;20043;-57
2022/09/11 03:01:25;;;;;;;59.08;18.85;;;13.70;99.90;;;;;;5072839;28;20141;-57
2022/09/11 03:03:50;;;;;;;37.95;17.05;;;13.20;99.90;;;;;;5066495;28;20511;-56
2022/09/11 03:06:23;;;;;;;48.72;18.67;;;13.10;99.90;;;;;;5071370;28;20131;-56
2022/09/11 03:08:51;;;;;;;31.67;17.98;;;13.50;99.90;;;;;;5072583;28;20487;-56
2022/09/11 03:11:19;;;;;;;29.05;18.83;;;13.30;99.90;;;;;;5072413;28;20037;-56
2022/09/11 03:13:45;;;;;;;47.78;18.92;;;13.10;99.90;;;;;;5071125;28;20531;-56
2022/09/11 03:16:11;;;;;;;44.42;18.02;;;;;;;;;;5072771;28;20048;-56
2022/09/11 03:18:38;;;;;;;36.25;19.75;;;13.10;99.90;;;;;;5081502;28;20036;-56
2022/09/11 03:21:04;;;;;;;40.30;19.83;;;13.20;99.90;;;;;;5096126;28;20040;-56
2022/09/11 03:23:33;;;;;;;30.50;19.10;;;13.20;99.90;;;;;;5077158;28;20063;-56
2022/09/11 03:26:00;;;;;;;46.88;20.13;;;13.50;99.90;;;;;;5087888;28;20040;-56
2022/09/11 03:28:26;;;;;;;44.47;19.42;;;;;;;;;;5095991;28;20504;-56
2022/09/11 03:30:54;;;;;;;45.95;20.02;;;13.00;99.90;;;;;;5096059;28;20111;-56
2022/09/11 03:33:27;;;;;;;35.15;19.70;;;;;;;;;;5082843;28;20040;-56
2022/09/11 03:35:53;;;;;;;52.83;19.15;;;13.20;99.90;;;;;;5075846;28;20120;-56
2022/09/11 03:38:32;;;;;;;52.42;20.60;;;;;;;;;;5075995;28;20509;-56
2022/09/11 03:41:01;;;;;;;43.30;20.38;;;13.20;99.90;;;;;;5083518;28;20032;-56
2022/09/11 03:43:29;;;;;;;103.28;23.88;;;13.50;99.90;;;;;;5096130;28;20399;-56
2022/09/11 03:45:59;;;;;;;50.78;22.10;;;13.20;99.90;;;;;;5095624;28;20040;-56
2022/09/11 03:48:32;;;;;;;54.78;20.58;;;13.10;99.90;;;;;;5076051;28;20043;-56
2022/09/11 03:51:04;;;;;;;92.35;22.40;;;13.30;99.90;;;;;;5077155;28;20130;-56
2022/09/11 03:53:31;;;;;;;106.22;21.38;;;13.30;99.90;;;;;;5074607;28;20037;-56
2022/09/11 03:56:02;;;;;;;42.13;20.88;;;;;;;;;;5074720;28;20036;-56
2022/09/11 03:58:32;;;;;;;38.55;20.77;;;13.20;99.90;;;;;;5055599;28;20072;-56
2022/09/11 04:01:00;;;;;;;77.15;21.38;;;13.10;99.90;;;;;;5067537;28;20051;-56
2022/09/11 04:03:29;;;;;;;93.78;19.63;;;13.30;99.90;;;;;;5083246;28;20044;-56
2022/09/11 04:05:57;;;;;;;51.60;20.00;;;13.00;99.90;;;;;;5075644;28;20053;-56
2022/09/11 04:08:23;;;;;;;50.28;19.40;;;13.30;99.90;;;;;;5075710;28;20491;-61
2022/09/11 04:11:05;;;;;;;27.00;19.30;;;13.00;99.90;;;;;;5092925;28;20039;-62
2022/09/11 04:13:33;;;;;;;25.45;18.40;;;13.10;99.90;;;;;;5091229;28;20551;-61
2022/09/11 04:16:02;;;;;;;24.15;17.58;;;13.00;99.90;;;;;;5087188;28;20502;-62
2022/09/11 04:18:29;;;;;;;26.42;18.15;;;12.90;99.90;;;;;;5094982;28;20048;-61
2022/09/11 04:20:57;;;;;;;24.17;17.65;;;13.20;99.90;;;;;;5095124;28;20063;-62
2022/09/11 04:23:26;;;;;;;20.88;15.98;;;13.00;99.90;;;;;;5093480;28;20039;-61
2022/09/11 04:25:52;;;;;;;22.52;16.73;;;13.00;99.90;;;;;;5095126;28;20560;-62
2022/09/11 04:28:18;;;;;;;20.70;15.38;;;13.20;99.90;;;;;;5093234;28;20054;-62
2022/09/11 04:30:49;;;;;;;18.40;15.23;;;13.00;99.90;;;;;;5094738;28;20123;-62
2022/09/11 04:33:15;;;;;;;22.17;15.43;;;13.10;99.90;;;;;;5079018;28;20044;-62
2022/09/11 04:35:43;;;;;;;20.13;14.77;;;13.10;99.90;;;;;;5076902;28;20052;-62
2022/09/11 04:38:10;;;;;;;20.58;15.88;;;13.00;99.90;;;;;;5074435;28;20087;-62
2022/09/11 04:40:39;;;;;;;18.80;14.73;;;13.20;99.90;;;;;;5074864;28;20079;-62
2022/09/11 04:43:05;;;;;;;19.00;14.75;;;13.20;99.90;;;;;;5074753;28;20122;-62
2022/09/11 04:45:35;;;;;;;21.45;14.93;;;13.20;99.90;;;;;;5093246;28;20397;-62
2022/09/11 04:48:01;;;;;;;19.63;15.40;;;13.00;99.90;;;;;;5094517;28;20032;-62
2022/09/11 04:50:28;;;;;;;20.63;15.82;;;13.00;99.90;;;;;;5093593;28;20408;-56
2022/09/11 04:52:57;;;;;;;19.75;14.70;;;13.10;99.90;;;;;;5074648;28;20395;-56
2022/09/11 04:55:24;;;;;;;21.95;15.48;;;13.30;99.90;;;;;;5073054;28;20051;-56
2022/09/11 04:57:51;;;;;;;22.00;15.55;;;;;;;;;;5086837;28;20051;-56
2022/09/11 05:00:20;;;;;;;23.95;17.42;;;12.90;99.90;;;;;;5093368;28;20123;-56
2022/09/11 05:02:46;;;;;;;20.10;14.98;;;;;;;;;;5082936;28;20052;-56
2022/09/11 05:05:14;;;;;;;21.02;15.40;;;12.90;99.90;;;;;;5090243;28;20052;-57
2022/09/11 05:07:41;;;;;;;18.13;14.25;;;12.80;99.90;;;;;;5076420;28;20479;-56
2022/09/11 05:10:09;;;;;;;18.05;14.38;;;12.90;99.90;;;;;;5074095;28;20119;-56
2022/09/11 05:12:55;;;;;;;18.48;13.85;;;12.90;99.90;;;;;;5074236;28;20408;-56
2022/09/11 05:15:24;;;;;;;17.85;14.20;;;13.00;99.90;;;;;;5074730;28;20181;-56
2022/09/11 05:17:50;;;;;;;17.35;13.10;;;12.90;99.90;;;;;;5083430;28;20089;-56
2022/09/11 05:20:17;;;;;;;18.98;14.65;;;12.90;99.90;;;;;;5092628;28;20402;-62
2022/09/11 05:22:46;;;;;;;17.88;14.27;;;12.80;99.90;;;;;;5092486;28;20039;-62
2022/09/11 05:25:15;;;;;;;19.42;14.00;;;13.00;99.90;;;;;;5094050;28;20086;-62
2022/09/11 05:27:42;;;;;;;18.58;14.77;;;12.90;99.90;;;;;;5093232;28;20123;-62
2022/09/11 05:30:09;;;;;;;19.38;15.50;;;12.90;99.90;;;;;;5094109;28;20044;-62
2022/09/11 05:32:35;;;;;;;17.45;14.07;;;13.00;99.90;;;;;;5085246;28;20407;-62
2022/09/11 05:35:03;;;;;;;18.63;13.80;;;12.90;99.90;;;;;;5074890;28;20108;-63
2022/09/11 05:37:29;;;;;;;18.92;14.85;;;12.90;99.90;;;;;;5084472;28;20032;-63
2022/09/11 05:39:55;;;;;;;22.42;14.85;;;12.70;99.90;;;;;;5073713;28;20044;-62
2022/09/11 05:42:24;;;;;;;30.83;15.90;;;13.10;99.90;;;;;;5081697;28;20051;-63
2022/09/11 05:44:53;;;;;;;33.40;17.65;;;13.00;99.90;;;;;;5093616;28;20043;-62
2022/09/11 05:47:19;;;;;;;35.88;16.30;;;13.10;99.90;;;;;;5093125;28;20092;-62
2022/09/11 05:49:48;;;;;;;21.75;15.52;;;13.00;99.90;;;;;;5093498;28;20048;-62
2022/09/11 05:52:14;;;;;;;27.83;16.80;;;13.20;99.90;;;;;;5092083;28;20114;-62
2022/09/11 05:54:40;;;;;;;74.57;16.77;;;;;;;;;;5093488;28;20468;-62
2022/09/11 05:57:06;;;;;;;53.60;16.60;;;13.30;99.90;;;;;;5093292;28;20040;-62
2022/09/11 05:59:35;;;;;;;52.40;16.27;;;;;;;;;;5075517;28;20119;-62
2022/09/11 06:02:01;;;;;;;45.03;15.85;;;13.40;99.90;;;;;;5073336;28;20396;-62
2022/09/11 06:04:34;;;;;;;65.72;15.65;;;13.60;99.90;;;;;;5087795;28;20098;-62
2022/09/11 06:06:59;;;;;;;36.97;13.93;;;13.50;99.90;;;;;;5088782;28;20476;-63
2022/09/11 06:09:25;;;;;;;20.17;13.88;;;13.50;99.90;;;;;;5073378;28;20044;-63
2022/09/11 06:11:52;;;;;;;18.20;13.20;;;14.00;99.90;;;;;;5073108;28;20047;-63
2022/09/11 06:14:18;;;;;;;21.98;13.95;;;14.30;99.90;;;;;;5070686;28;20044;-62
2022/09/11 06:16:47;;;;;;;29.95;14.95;;;;;;;;;;5076835;28;20494;-62
2022/09/11 06:19:13;;;;;;;21.80;13.07;;;14.70;99.90;;;;;;5053148;28;20041;-63
2022/09/11 06:21:39;;;;;;;25.63;12.90;;;15.60;99.90;;;;;;5066724;28;20032;-62
2022/09/11 06:24:05;;;;;;;21.95;12.40;;;15.10;99.90;;;;;;5073213;28;20059;-62
2022/09/11 06:26:31;;;;;;;15.80;13.18;;;15.50;99.90;;;;;;5072839;28;20044;-62
2022/09/11 06:28:58;;;;;;;13.98;12.40;;;15.90;99.90;;;;;;5072882;28;20110;-62
2022/09/11 06:31:28;;;;;;;27.25;12.13;;;;;;;;;;5073213;28;20063;-63
2022/09/11 06:33:59;;;;;;;12.27;11.07;;;16.20;99.90;;;;;;5084588;28;20094;-63
2022/09/11 06:36:28;;;;;;;14.32;11.63;;;16.50;99.90;;;;;;5092726;28;20503;-63
2022/09/11 06:38:56;;;;;;;14.88;12.25;;;16.90;99.90;;;;;;5074838;28;20501;-63
2022/09/11 06:41:24;;;;;;;11.38;10.27;;;16.60;99.90;;;;;;5072287;28;20063;-57
2022/09/11 06:43:52;;;;;;;12.10;10.73;;;;;;;;;;5072913;28;20048;-56
2022/09/11 06:46:23;;;;;;;9.40;8.50;;;18.40;99.90;;;;;;5074992;28;20102;-56
2022/09/11 06:48:51;;;;;;;11.15;9.63;;;19.20;99.90;;;;;;5092830;28;20103;-56
2022/09/11 06:51:22;;;;;;;8.90;8.10;;;20.50;99.90;;;;;;5091547;28;20044;-56
2022/09/11 06:53:57;;;;;;;9.32;8.40;;;21.00;99.90;;;;;;5094196;28;20092;-57
2022/09/11 06:56:25;;;;;;;9.43;8.52;;;22.20;99.90;;;;;;5094190;28;20032;-56
2022/09/11 06:59:14;;;;;;;9.43;8.52;;;22.20;99.90;;;;;;5084026;28;20088;-56
2022/09/11 07:01:40;;;;;;;7.70;7.00;;;23.10;99.90;;;;;;5078479;28;20119;-57
2022/09/11 07:04:09;;;;;;;9.25;8.32;;;23.60;99.90;;;;;;5067023;28;20056;-57
2022/09/11 07:06:38;;;;;;;9.23;8.35;;;23.50;99.90;;;;;;5055420;28;20475;-57
2022/09/11 07:09:04;;;;;;;8.75;7.95;;;23.50;99.90;;;;;;5055038;28;20075;-57
2022/09/11 07:11:45;;;;;;;10.00;7.80;;;22.60;99.90;;;;;;5055677;28;20481;-56
2022/09/11 07:14:11;;;;;;;8.73;7.82;;;22.00;99.90;;;;;;5055487;28;20060;-56
2022/09/11 07:16:37;;;;;;;8.77;7.60;;;22.50;99.90;;;;;;5055257;28;20037;-56
2022/09/11 07:19:09;;;;;;;8.77;7.90;;;22.60;99.90;;;;;;5055032;28;20107;-56
2022/09/11 07:21:38;;;;;;;8.85;7.85;;;;;;;;;;5055722;28;20439;-57
2022/09/11 07:24:06;;;;;;;9.20;7.70;;;24.20;99.90;;;;;;5055565;28;20044;-56
2022/09/11 07:26:42;;;;;;;7.70;6.82;;;24.50;99.90;;;;;;5055654;28;20389;-57
2022/09/11 07:29:11;;;;;;;9.75;8.25;;;24.50;99.90;;;;;;5055172;28;20037;-63
2022/09/11 07:31:44;;;;;;;10.23;7.65;;;24.50;99.90;;;;;;5055268;28;20068;-63
2022/09/11 07:34:09;;;;;;;9.23;8.15;;;24.30;99.90;;;;;;5054741;28;20060;-63
2022/09/11 07:36:38;;;;;;;9.25;8.27;;;24.90;99.90;;;;;;5055480;28;20080;-63
2022/09/11 07:39:04;;;;;;;9.45;7.82;;;24.60;99.90;;;;;;5053952;28;20136;-63
2022/09/11 07:41:35;;;;;;;11.82;8.77;;;25.30;99.90;;;;;;5074124;28;20040;-56
2022/09/11 07:44:03;;;;;;;9.45;8.05;;;25.20;99.90;;;;;;5073809;28;20059;-57
2022/09/11 07:46:31;;;;;;;9.93;7.88;;;26.20;99.90;;;;;;5074967;28;20083;-56
2022/09/11 07:49:00;;;;;;;9.98;7.60;;;26.40;99.90;;;;;;5074921;28;20416;-57
2022/09/11 07:51:30;;;;;;;9.70;7.70;;;27.20;99.90;;;;;;5074510;28;20102;-57
2022/09/11 07:53:58;;;;;;;12.32;7.90;;;27.60;99.90;;;;;;5075809;28;20052;-57
2022/09/11 07:56:26;;;;;;;10.45;8.68;;;27.60;98.90;;;;;;5075675;28;20071;-56
2022/09/11 07:58:53;;;;;;;10.63;8.07;;;27.60;94.30;;;;;;5075475;28;20128;-56
2022/09/11 08:01:31;;;;;;;8.88;7.97;;;27.00;99.60;;;;;;5075677;28;20444;-56
2022/09/11 08:04:03;;;;;;;12.27;7.70;;;27.30;99.80;;;;;;5074854;28;20139;-57
2022/09/11 08:06:35;;;;;;;9.50;8.27;;;27.20;99.70;;;;;;5065042;28;20084;-56
2022/09/11 08:09:16;;;;;;;9.10;8.20;;;26.80;95.00;;;;;;5057045;28;20503;-57
2022/09/11 08:11:48;;;;;;;9.65;7.90;;;26.50;99.60;;;;;;5071411;28;20044;-56
2022/09/11 08:14:16;;;;;;;12.18;8.55;;;26.70;99.90;;;;;;5075237;28;20206;-56
2022/09/11 08:16:44;;;;;;;10.52;7.90;;;27.10;99.90;;;;;;5075190;28;20044;-56
2022/09/11 08:19:20;;;;;;;11.90;7.57;;;25.90;99.90;;;;;;5075447;28;20432;-56
2022/09/11 08:21:48;;;;;;;9.70;8.30;;;26.30;97.70;;;;;;5073914;28;20036;-57
2022/09/11 08:24:26;;;;;;;10.52;7.93;;;26.10;99.90;;;;;;5075227;28;20401;-64
2022/09/11 08:26:52;;;;;;;9.82;7.70;;;26.20;99.90;;;;;;5075143;28;20054;-64
2022/09/11 08:29:18;;;;;;;10.63;8.00;;;25.70;99.90;;;;;;5075001;28;20488;-65
2022/09/11 08:31:44;;;;;;;11.52;7.47;;;25.60;99.90;;;;;;5073680;28;20046;-65
2022/09/11 08:34:12;;;;;;;10.18;7.95;;;25.50;99.90;;;;;;5074768;28;20044;-64
2022/09/11 08:36:39;;;;;;;12.90;7.95;;;25.70;99.90;;;;;;5074670;28;20051;-56
2022/09/11 08:39:07;;;;;;;12.90;6.72;;;25.50;99.90;;;;;;5040846;28;20060;-56
2022/09/11 08:41:55;;;;;;;12.45;6.80;;;26.00;99.90;;;;;;5074773;28;20396;-56
2022/09/11 08:44:31;;;;;;;8.85;6.50;;;25.30;99.90;;;;;;5074874;28;20087;-56
2022/09/11 08:47:07;;;;;;;8.90;6.40;;;25.60;99.90;;;;;;5074725;28;20101;-56
2022/09/11 08:49:45;;;;;;;8.32;6.70;;;25.80;99.90;;;;;;5073296;28;20495;-56
2022/09/11 08:52:15;;;;;;;8.98;6.35;;;25.70;99.90;;;;;;5074502;28;20090;-56
2022/09/11 08:54:46;;;;;;;10.68;6.82;;;25.60;99.90;;;;;;5074438;28;20036;-56
2022/09/11 08:57:30;;;;;;;12.98;6.53;;;25.10;99.90;;;;;;5073921;28;20124;-56
2022/09/11 09:00:06;;;;;;;8.45;5.82;;;25.00;99.90;;;;;;5074234;28;20484;-56
2022/09/11 09:02:47;;;;;;;9.30;6.32;;;25.30;99.90;;;;;;5073100;28;20052;-56
2022/09/11 09:05:30;;;;;;;11.75;6.07;;;25.70;99.90;;;;;;5073867;28;20052;-56
2022/09/11 09:08:26;;;;;;;10.85;5.80;;;25.70;99.90;;;;;;5074543;28;20392;-56
2022/09/11 09:11:06;;;;;;;10.93;5.30;;;25.90;99.90;;;;;;5073264;28;20460;-56
2022/09/11 09:13:50;;;;;;;6.88;4.75;;;25.10;99.90;;;;;;5073832;28;20043;-56
2022/09/11 09:16:39;;;;;;;8.15;4.60;;;24.70;99.90;;;;;;5073804;28;20400;-56
2022/09/11 09:19:26;;;;;;;7.95;4.80;;;25.10;99.90;;;;;;5059308;28;20078;-56
2022/09/11 09:22:21;;;;;;;7.53;5.47;;;24.00;99.90;;;;;;5072275;28;20072;-56
2022/09/11 09:24:59;;;;;;;8.25;5.18;;;23.40;99.90;;;;;;5072583;28;20036;-58
2022/09/11 09:27:39;;;;;;;9.32;5.45;;;23.40;99.90;;;;;;5071295;28;20122;-56
2022/09/11 09:30:16;;;;;;;7.38;5.30;;;22.00;99.90;;;;;;5071737;28;20484;-56
2022/09/11 09:33:00;;;;;;;8.10;5.05;;;23.10;99.90;;;;;;5072715;28;20059;-56
2022/09/11 09:35:46;;;;;;;9.20;5.20;;;23.20;99.90;;;;;;5072727;28;20040;-56
2022/09/11 09:38:13;;;;;;;10.55;4.50;;;22.60;99.90;;;;;;5074067;28;20044;-56
2022/09/11 09:41:36;;;;;;;8.10;4.53;;;22.90;99.90;;;;;;5073831;28;20044;-56
2022/09/11 09:44:21;;;;;;;8.90;4.18;;;22.60;99.90;;;;;;5039282;28;20055;-56
2022/09/11 09:46:55;;;;;;;8.20;4.10;;;22.70;99.90;;;;;;5072051;28;20044;-56
2022/09/11 09:49:27;;;;;;;8.75;4.40;;;22.30;99.90;;;;;;5073759;28;20043;-56
2022/09/11 09:51:57;;;;;;;8.52;3.90;;;22.40;99.90;;;;;;5073597;28;20075;-56
2022/09/11 09:54:28;;;;;;;8.00;4.03;;;21.50;99.90;;;;;;5073296;28;20044;-56
2022/09/11 09:57:06;;;;;;;6.70;4.27;;;22.00;99.90;;;;;;5073347;28;20045;-56
2022/09/11 09:59:55;;;;;;;7.60;4.33;;;22.20;99.90;;;;;;5073493;28;20086;-57
2022/09/11 10:02:44;;;;;;;11.75;5.70;;;21.70;99.90;;;;;;5073433;28;20040;-56
2022/09/11 10:05:33;;;;;;;9.52;5.47;;;21.40;99.90;;;;;;5073024;28;20169;-56
2022/09/11 10:08:04;;;;;;;10.25;5.45;;;20.70;99.90;;;;;;5069533;28;20039;-56
2022/09/11 10:10:39;;;;;;;9.30;5.43;;;21.00;99.90;;;;;;5072653;28;20040;-57
2022/09/11 10:13:23;;;;;;;11.38;5.78;;;20.90;99.90;;;;;;5071318;28;20098;-56
2022/09/11 10:15:58;;;;;;;10.23;5.63;;;21.00;99.90;;;;;;5069927;28;20054;-56
2022/09/11 10:18:29;;;;;;;10.52;5.60;;;21.20;99.90;;;;;;5073094;28;20115;-56
2022/09/11 10:21:12;;;;;;;8.93;5.20;;;21.00;99.90;;;;;;5073146;28;20056;-56
2022/09/11 10:23:56;;;;;;;9.05;4.82;;;21.10;99.90;;;;;;5072718;28;20044;-56
2022/09/11 10:26:33;;;;;;;8.43;5.55;;;22.20;99.90;;;;;;5062802;28;20070;-56
2022/09/11 10:29:06;;;;;;;11.48;6.00;;;21.40;99.90;;;;;;5057379;28;20392;-56
2022/09/11 10:31:37;;;;;;;12.88;6.38;;;21.40;99.90;;;;;;5072943;28;20049;-56
2022/09/11 10:34:03;;;;;;;10.60;5.32;;;21.70;99.90;;;;;;5068017;28;20136;-56
2022/09/11 10:36:30;;;;;;;8.43;5.40;;;22.00;99.90;;;;;;5071640;28;20041;-56
2022/09/11 10:39:01;;;;;;;8.85;5.60;;;21.90;99.90;;;;;;5071669;28;20072;-56
2022/09/11 10:41:33;;;;;;;11.75;5.95;;;23.20;99.90;;;;;;5063101;28;20041;-57
2022/09/11 10:44:01;;;;;;;8.20;5.10;;;22.90;99.90;;;;;;5063526;28;20480;-56
2022/09/11 10:47:03;;;;;;;7.43;4.25;;;23.00;99.90;;;;;;5072209;28;20040;-56
2022/09/11 10:49:29;;;;;;;6.55;4.13;;;23.10;99.90;;;;;;5065047;28;20369;-56
2022/09/11 10:52:16;;;;;;;7.47;3.95;;;23.10;99.90;;;;;;5058632;28;20052;-56
2022/09/11 10:55:06;;;;;;;10.70;4.22;;;23.10;99.90;;;;;;5070499;28;20505;-56
2022/09/11 10:57:58;;;;;;;8.18;4.97;;;22.90;99.90;;;;;;5071959;28;20036;-63
2022/09/11 11:00:26;;;;;;;7.20;3.97;;;22.70;99.90;;;;;;5071359;28;20139;-64
2022/09/11 11:02:59;;;;;;;7.45;3.45;;;22.50;99.90;;;;;;5071352;28;20392;-63
2022/09/11 11:05:30;;;;;;;5.30;3.67;;;22.50;99.90;;;;;;5071284;28;20063;-64
2022/09/11 11:08:36;;;;;;;10.60;4.30;;;22.50;99.90;;;;;;5071757;28;20043;-64
2022/09/11 11:11:13;;;;;;;7.00;3.92;;;22.50;99.90;;;;;;5057405;28;20137;-64
2022/09/11 11:14:19;;;;;;;8.57;3.88;;;22.50;99.90;;;;;;5071091;28;20392;-64
2022/09/11 11:17:08;;;;;;;6.28;3.60;;;22.60;99.90;;;;;;5072331;28;20068;-64
2022/09/11 11:19:53;;;;;;;6.90;3.40;;;22.40;99.90;;;;;;5072503;28;20072;-64
2022/09/11 11:22:37;;;;;;;8.27;3.50;;;22.30;99.90;;;;;;5072314;28;20123;-64
2022/09/11 11:25:49;;;;;;;7.18;3.83;;;22.30;99.90;;;;;;5071442;28;20384;-64
2022/09/11 11:28:21;;;;;;;6.40;3.88;;;22.30;99.90;;;;;;5033233;28;20061;-64
2022/09/11 11:30:47;;;;;;;7.65;3.80;;;22.30;99.90;;;;;;5033326;28;20041;-64
2022/09/11 11:33:34;;;;;;;7.30;3.80;;;22.40;99.90;;;;;;5049020;28;20132;-65
2022/09/11 11:36:18;;;;;;;4.85;3.10;;;22.20;99.90;;;;;;5048989;28;20163;-64
2022/09/11 11:38:51;;;;;;;5.82;3.60;;;22.40;99.90;;;;;;5048418;28;20134;-64
2022/09/11 11:41:25;;;;;;;6.88;3.70;;;22.60;99.90;;;;;;5051621;28;20068;-64
2022/09/11 11:43:55;;;;;;;6.00;3.30;;;22.70;99.90;;;;;;5053164;28;20064;-65
2022/09/11 11:46:33;;;;;;;5.10;3.03;;;22.80;99.90;;;;;;5053244;28;20048;-65
2022/09/11 11:49:03;;;;;;;6.63;3.13;;;22.80;99.90;;;;;;5052743;28;20029;-65
2022/09/11 11:51:42;;;;;;;5.00;2.90;;;23.00;99.90;;;;;;5053366;28;20404;-64
2022/09/11 11:54:19;;;;;;;6.53;3.15;;;23.10;99.90;;;;;;5037051;28;20041;-65
2022/09/11 11:56:55;;;;;;;5.72;3.00;;;21.70;99.90;;;;;;5050896;28;20124;-65
2022/09/11 11:59:23;;;;;;;6.63;3.60;;;23.50;99.90;;;;;;5031275;28;20146;-64
2022/09/11 12:02:04;;;;;;;7.97;3.15;;;23.70;99.90;;;;;;5052740;28;20041;-65
2022/09/11 12:04:49;;;;;;;9.88;2.92;;;23.80;99.90;;;;;;5055802;28;20041;-65
2022/09/11 12:07:33;;;;;;;4.75;2.75;;;24.00;99.90;;;;;;5075012;28;20051;-65
2022/09/11 12:10:01;;;;;;;7.53;3.20;;;25.20;99.90;;;;;;5075431;28;20049;-65
2022/09/11 12:12:32;;;;;;;5.72;3.28;;;24.20;99.90;;;;;;5074854;28;20037;-65
2022/09/11 12:15:16;;;;;;;6.15;2.85;;;24.20;99.90;;;;;;5074261;28;20488;-65
2022/09/11 12:17:42;;;;;;;5.10;2.90;;;24.40;99.90;;;;;;5056863;28;20037;-65
2022/09/11 12:20:08;;;;;;;7.63;2.85;;;24.40;99.90;;;;;;5074642;28;20037;-66
2022/09/11 12:22:42;;;;;;;6.40;2.72;;;24.40;99.90;;;;;;5074853;28;20071;-65
2022/09/11 12:25:20;;;;;;;8.43;2.70;;;24.50;99.90;;;;;;5073128;28;20049;-65
2022/09/11 12:28:25;;;;;;;5.25;2.60;;;24.60;99.90;;;;;;5074727;28;20044;-65
2022/09/11 12:30:59;;;;;;;3.80;2.40;;;24.70;99.90;;;;;;5074025;28;20358;-65
2022/09/11 12:33:46;;;;;;;7.32;2.55;;;24.80;99.90;;;;;;5071595;28;20037;-66
2022/09/11 12:36:23;;;;;;;4.93;2.50;;;24.90;99.90;;;;;;5074048;28;20052;-66
2022/09/11 12:39:01;;;;;;;5.72;2.47;;;25.40;99.90;;;;;;5073809;28;20046;-66
2022/09/11 12:41:39;;;;;;;7.93;2.40;;;25.10;99.90;;;;;;5074332;28;20040;-65
2022/09/11 12:44:30;;;;;;;5.07;2.38;;;24.80;99.40;;;;;;5074434;28;20037;-66
2022/09/11 12:46:55;;;;;;;3.80;2.20;;;23.90;99.90;;;;;;5074081;28;20115;-66
2022/09/11 12:49:23;;;;;;;6.00;2.30;;;25.00;99.00;;;;;;5073716;28;20156;-66
2022/09/11 12:52:00;;;;;;;4.53;2.08;;;25.00;98.70;;;;;;5073251;28;20051;-66
2022/09/11 12:54:39;;;;;;;5.05;2.45;;;25.20;99.90;;;;;;5073923;28;20063;-66
2022/09/11 12:57:24;;;;;;;6.10;2.33;;;25.30;99.90;;;;;;5074088;28;20032;-56
2022/09/11 12:59:55;;;;;;;5.03;2.35;;;25.20;98.70;;;;;;5074174;28;20047;-56
2022/09/11 13:02:45;;;;;;;5.45;2.30;;;25.70;99.90;;;;;;5074800;28;20083;-56
2022/09/11 13:05:28;;;;;;;4.30;2.10;;;25.50;97.70;;;;;;5073607;28;20045;-56
2022/09/11 13:08:03;;;;;;;4.70;1.95;;;25.70;97.90;;;;;;5087973;28;20071;-56
2022/09/11 13:10:38;;;;;;;4.40;2.20;;;26.60;97.90;;;;;;5055180;28;20101;-66
2022/09/11 13:13:25;;;;;;;3.78;1.80;;;26.00;96.40;;;;;;5072463;28;20044;-66
2022/09/11 13:15:57;;;;;;;6.82;2.10;;;25.70;99.10;;;;;;5072982;28;20036;-56